Time;durP1;ratioP1;P1;durP2;ratioP2;P2;SDS_P1;SDS_P2;PMS_P1;PMS_P2;Temp;Humidity;BMP_temperature;BMP_pressure;BME280_temperature;BME280_humidity;BME280_pressure;Samples;Min_cycle;Max_cycle;Signal;HPM_P1;HPM_P2
2023/03/21 00:01:58;;;;;;;44.90;20.60;;;;;;;9.23;93.37;100310.30;106577;1274;22510;-59
2023/03/21 00:04:29;;;;;;;44.10;20.40;;;;;;;9.21;93.64;100308.47;106734;1274;22823;-58
2023/03/21 00:07:00;;;;;;;45.90;20.90;;;;;;;9.19;93.51;100304.52;106787;1271;23025;-60
2023/03/21 00:09:31;;;;;;;41.70;20.20;;;;;;;9.17;93.67;100302.10;106550;1272;22592;-60
2023/03/21 00:12:07;;;;;;;45.50;21.10;;;;;;;9.18;93.70;100300.43;106636;1275;25463;-60
2023/03/21 00:14:38;;;;;;;44.50;21.10;;;;;;;9.18;93.69;100300.20;106701;1274;22518;-59
2023/03/21 00:17:09;;;;;;;42.40;20.40;;;;;;;9.16;93.67;100297.77;106763;1261;22521;-60
2023/03/21 00:19:41;;;;;;;46.00;22.00;;;;;;;9.15;93.73;100294.24;106804;1267;22520;-59
2023/03/21 00:22:12;;;;;;;47.00;23.10;;;;;;;9.14;93.82;100291.43;106953;1267;24221;-60
2023/03/21 00:24:44;;;;;;;46.40;22.80;;;;;;;9.15;93.85;100289.79;106769;1269;22609;-59
2023/03/21 00:27:15;;;;;;;48.00;23.50;;;;;;;9.16;93.88;100284.04;106833;1275;25373;-60
2023/03/21 00:29:48;;;;;;;47.00;22.30;;;;;;;9.16;94.02;100280.29;106848;1275;22493;-58
2023/03/21 00:32:20;;;;;;;56.20;26.40;;;;;;;9.14;94.03;100275.79;106841;1275;22779;-59
2023/03/21 00:34:51;;;;;;;49.30;23.00;;;;;;;9.13;94.14;100268.50;106700;1267;22569;-59
2023/03/21 00:37:22;;;;;;;50.70;23.70;;;;;;;9.12;94.30;100266.77;106577;1268;25491;-60
2023/03/21 00:39:53;;;;;;;50.80;25.00;;;;;;;9.12;94.31;100273.96;106745;1275;22514;-60
2023/03/21 00:42:24;;;;;;;52.00;25.00;;;;;;;9.11;94.60;100271.95;106724;1269;24219;-59
2023/03/21 00:44:55;;;;;;;50.00;24.10;;;;;;;9.10;94.36;100273.16;106802;1275;22517;-61
2023/03/21 00:47:26;;;;;;;48.10;24.20;;;;;;;9.11;94.53;100273.06;106758;1275;22820;-59
2023/03/21 00:49:57;;;;;;;49.70;25.00;;;;;;;9.11;94.16;100271.14;106721;1275;26598;-61
2023/03/21 00:52:28;;;;;;;49.00;25.30;;;;;;;9.12;94.42;100271.89;106855;1275;25680;-58
2023/03/21 00:55:00;;;;;;;53.00;27.10;;;;;;;9.13;94.36;100268.90;106886;1275;22568;-60
2023/03/21 00:57:31;;;;;;;55.20;26.20;;;;;;;9.13;94.29;100262.23;106691;1275;22517;-62
2023/03/21 01:00:03;;;;;;;51.00;24.10;;;;;;;9.13;94.57;100265.56;106793;1275;22630;-59
2023/03/21 01:02:33;;;;;;;47.20;24.80;;;;;;;9.11;94.56;100267.09;107218;1263;24244;-60
2023/03/21 01:05:05;;;;;;;51.80;25.50;;;;;;;9.12;94.55;100265.30;106800;1272;25240;-58
2023/03/21 01:07:36;;;;;;;49.70;26.30;;;;;;;9.11;94.37;100261.88;106809;1275;25288;-59
2023/03/21 01:10:10;;;;;;;53.80;25.90;;;;;;;9.11;94.45;100261.42;106838;1259;22517;-59
2023/03/21 01:12:41;;;;;;;50.90;25.90;;;;;;;9.11;94.73;100265.64;107006;1268;25372;-59
2023/03/21 01:15:12;;;;;;;54.10;28.10;;;;;;;9.09;94.87;100269.41;106636;1273;22572;-59
2023/03/21 01:17:43;;;;;;;54.90;26.30;;;;;;;9.03;94.91;100277.41;106966;1275;22616;-64
2023/03/21 01:20:15;;;;;;;51.30;27.10;;;;;;;8.95;95.13;100274.95;106529;1274;24268;-65
2023/03/21 01:22:46;;;;;;;51.70;26.40;;;;;;;8.89;95.73;100279.80;106547;1272;24364;-65
2023/03/21 01:25:17;;;;;;;45.80;21.10;;;;;;;8.84;96.27;100274.20;106568;1275;24245;-62
2023/03/21 01:27:48;;;;;;;38.80;19.30;;;;;;;8.80;96.69;100277.94;106590;1275;25283;-61
2023/03/21 01:30:19;;;;;;;44.80;19.90;;;;;;;8.79;97.13;100276.44;106777;1270;25487;-63
2023/03/21 01:32:51;;;;;;;47.50;23.40;;;;;;;8.77;97.30;100277.29;106868;1274;24270;-62
2023/03/21 01:35:22;;;;;;;45.60;19.70;;;;;;;8.75;97.37;100272.45;106783;1274;25363;-63
2023/03/21 01:37:53;;;;;;;44.30;21.90;;;;;;;8.74;97.21;100267.34;106812;1272;22547;-62
2023/03/21 01:40:26;;;;;;;44.10;20.50;;;;;;;8.74;97.08;100263.86;106725;1267;24262;-62
2023/03/21 01:42:57;;;;;;;46.50;21.70;;;;;;;8.71;97.38;100260.09;106895;1272;25365;-62
2023/03/21 01:46:10;;;;;;;38.80;18.70;;;;;;;8.68;96.99;100253.13;106886;1261;22572;-59
2023/03/21 01:48:43;;;;;;;40.40;19.20;;;;;;;8.65;96.68;100254.55;106654;1280;25252;-58
2023/03/21 01:51:14;;;;;;;39.40;18.40;;;;;;;8.62;96.70;100255.23;106427;1274;25422;-57
2023/03/21 01:53:47;;;;;;;42.20;18.10;;;;;;;8.59;96.57;100254.27;106414;1271;22815;-57
2023/03/21 01:56:25;;;;;;;39.10;18.70;;;;;;;8.58;96.43;100241.92;106454;1266;25331;-58
2023/03/21 01:59:02;;;;;;;40.00;17.70;;;;;;;8.56;96.15;100232.52;106446;1281;25497;-59
2023/03/21 02:01:37;;;;;;;39.50;17.50;;;;;;;8.55;96.08;100231.44;106368;1281;22520;-58
2023/03/21 02:04:08;;;;;;;45.50;19.10;;;;;;;8.54;95.93;100234.38;106547;1280;25971;-58
2023/03/21 02:06:44;;;;;;;43.80;20.10;;;;;;;8.52;96.10;100235.65;106359;1258;25364;-61
2023/03/21 02:09:19;;;;;;;35.20;16.80;;;;;;;8.53;96.20;100240.79;106382;1275;22537;-59
2023/03/21 02:11:51;;;;;;;38.10;18.10;;;;;;;8.52;96.17;100245.29;106337;1281;22774;-59
2023/03/21 02:14:22;;;;;;;37.50;16.80;;;;;;;8.51;96.07;100249.36;106439;1278;24083;-58
2023/03/21 02:17:05;;;;;;;35.40;16.70;;;;;;;8.49;95.97;100250.18;106433;1281;23433;-61
2023/03/21 02:20:13;;;;;;;41.90;17.80;;;;;;;8.48;96.15;100249.45;106375;1281;22531;-57
2023/03/21 02:23:26;;;;;;;42.10;19.00;;;;;;;8.45;96.19;100255.34;106653;1281;22523;-60
2023/03/21 02:26:20;;;;;;;38.90;17.80;;;;;;;8.42;96.31;100253.34;106721;1274;22647;-59
2023/03/21 02:28:57;;;;;;;44.70;19.10;;;;;;;8.40;96.31;100257.41;106695;1261;25300;-59
2023/03/21 02:31:47;;;;;;;37.90;18.00;;;;;;;8.37;96.32;100260.48;106730;1268;25614;-60
2023/03/21 02:34:51;;;;;;;39.80;18.30;;;;;;;8.34;96.38;100263.56;106816;1274;22542;-55
2023/03/21 02:37:25;;;;;;;36.30;16.30;;;;;;;8.31;96.45;100266.78;106752;1263;22502;-59
2023/03/21 02:40:08;;;;;;;39.30;18.40;;;;;;;8.29;96.50;100269.25;106805;1275;25502;-59
2023/03/21 02:42:49;;;;;;;35.90;16.10;;;;;;;8.27;96.53;100270.20;106796;1259;25288;-59
2023/03/21 02:45:25;;;;;;;38.50;17.50;;;;;;;8.25;96.59;100272.84;106711;1267;22530;-57
2023/03/21 02:48:03;;;;;;;40.30;17.60;;;;;;;8.23;96.64;100269.55;106767;1275;23133;-60
2023/03/21 02:50:42;;;;;;;42.70;19.90;;;;;;;8.24;96.64;100270.17;106753;1257;22516;-55
2023/03/21 02:53:16;;;;;;;41.90;18.10;;;;;;;8.23;96.81;100271.48;106784;1268;24232;-58
2023/03/21 02:55:48;;;;;;;38.30;17.60;;;;;;;8.21;96.82;100270.19;106979;1275;22478;-59
2023/03/21 02:58:22;;;;;;;34.90;15.50;;;;;;;8.20;96.86;100270.63;106911;1275;24244;-59
2023/03/21 03:00:55;;;;;;;36.40;17.10;;;;;;;8.18;96.96;100271.58;106845;1261;24247;-60
2023/03/21 03:03:26;;;;;;;41.80;18.80;;;;;;;8.17;97.07;100266.15;106957;1270;25857;-58
2023/03/21 03:06:01;;;;;;;41.70;18.30;;;;;;;8.17;97.14;100267.83;106934;1275;22637;-58
2023/03/21 03:08:43;;;;;;;42.40;18.70;;;;;;;8.17;97.34;100273.48;107056;1263;24242;-58
2023/03/21 03:11:28;;;;;;;39.50;18.20;;;;;;;8.17;97.27;100276.73;106963;1275;22530;-60
2023/03/21 03:14:18;;;;;;;45.40;19.80;;;;;;;8.16;97.44;100270.63;106953;1274;24777;-59
2023/03/21 03:16:58;;;;;;;37.40;18.10;;;;;;;8.17;97.43;100263.32;106908;1267;22629;-58
2023/03/21 03:19:36;;;;;;;43.40;19.60;;;;;;;8.17;97.53;100255.92;106823;1274;22577;-59
2023/03/21 03:22:10;;;;;;;47.60;21.90;;;;;;;8.17;97.67;100256.08;106858;1275;24235;-59
2023/03/21 03:24:47;;;;;;;45.10;20.40;;;;;;;8.18;97.58;100255.65;106659;1275;22529;-61
2023/03/21 03:27:24;;;;;;;47.30;20.40;;;;;;;8.17;97.61;100264.79;106946;1267;25408;-61
2023/03/21 03:29:57;;;;;;;44.10;19.70;;;;;;;8.16;97.65;100268.34;106900;1275;23690;-60
2023/03/21 03:32:34;;;;;;;48.00;22.50;;;;;;;8.15;97.78;100265.05;106880;1275;22641;-57
2023/03/21 03:35:07;;;;;;;46.30;20.90;;;;;;;8.15;97.80;100267.20;106806;1275;24199;-59
2023/03/21 03:37:41;;;;;;;43.70;20.30;;;;;;;8.13;97.81;100270.94;106977;1275;22536;-61
2023/03/21 03:40:19;;;;;;;48.10;22.50;;;;;;;8.13;97.80;100273.32;106972;1261;22540;-58
2023/03/21 03:42:54;;;;;;;41.70;19.10;;;;;;;8.12;97.87;100274.77;106918;1275;26617;-58
2023/03/21 03:45:30;;;;;;;48.30;20.70;;;;;;;8.12;98.01;100276.31;106933;1275;22543;-58
2023/03/21 03:48:07;;;;;;;47.60;22.00;;;;;;;8.12;98.00;100277.17;106751;1275;24166;-60
2023/03/21 03:51:08;;;;;;;52.00;24.10;;;;;;;8.11;98.12;100278.16;107018;1275;22532;-60
2023/03/21 03:53:41;;;;;;;;;;;;;;;8.12;98.20;100275.36;106959;1274;22617;-58
2023/03/21 03:56:13;;;;;;;51.60;23.00;;;;;;;8.11;98.25;100280.15;106859;1275;24233;-58
2023/03/21 03:58:45;;;;;;;51.40;22.60;;;;;;;8.11;98.44;100283.16;106785;1257;25488;-59
2023/03/21 04:01:16;;;;;;;53.80;25.20;;;;;;;8.11;98.39;100285.48;106929;1275;22538;-59
2023/03/21 04:03:49;;;;;;;51.90;24.20;;;;;;;8.12;98.43;100284.88;106929;1274;24838;-61
2023/03/21 04:06:20;;;;;;;50.20;24.20;;;;;;;8.13;98.53;100278.73;106914;1261;27711;-58
2023/03/21 04:08:51;;;;;;;49.40;21.30;;;;;;;8.12;98.62;100282.24;106869;1274;22988;-60
2023/03/21 04:11:23;;;;;;;51.10;25.10;;;;;;;8.12;98.59;100280.88;106624;1269;22550;-57
2023/03/21 04:13:54;;;;;;;56.00;25.70;;;;;;;8.13;98.71;100280.89;106718;1275;22520;-59
2023/03/21 04:16:24;;;;;;;56.30;24.50;;;;;;;8.12;98.63;100284.77;106869;1274;22607;-60
2023/03/21 04:18:55;;;;;;;53.50;26.60;;;;;;;8.14;98.68;100284.31;106870;1275;25456;-61
2023/03/21 04:21:27;;;;;;;52.80;23.30;;;;;;;8.15;98.72;100287.44;106670;1263;22524;-59
2023/03/21 04:23:58;;;;;;;53.60;24.40;;;;;;;8.15;98.84;100287.59;106815;1272;22657;-56
2023/03/21 04:26:32;;;;;;;53.90;23.80;;;;;;;8.13;98.84;100290.21;106950;1275;22539;-59
2023/03/21 04:29:04;;;;;;;58.40;24.80;;;;;;;8.13;98.84;100289.38;106956;1275;22686;-57
2023/03/21 04:31:35;;;;;;;54.20;24.50;;;;;;;8.12;98.87;100288.21;106730;1273;22518;-59
2023/03/21 04:34:08;;;;;;;51.40;24.40;;;;;;;8.12;99.05;100292.25;106876;1273;25394;-60
2023/03/21 04:36:43;;;;;;;55.60;24.20;;;;;;;8.13;99.08;100288.12;106783;1272;25459;-59
2023/03/21 04:39:14;;;;;;;55.40;26.10;;;;;;;8.12;99.11;100284.78;106749;1267;25447;-59
2023/03/21 04:41:46;;;;;;;64.20;28.70;;;;;;;8.11;99.05;100285.70;106840;1275;22577;-59
2023/03/21 04:44:19;;;;;;;54.80;24.90;;;;;;;8.12;99.25;100287.52;107010;1254;24233;-59
2023/03/21 04:46:51;;;;;;;56.30;24.40;;;;;;;8.10;99.30;100288.77;106976;1275;22546;-60
2023/03/21 04:49:21;;;;;;;55.90;24.40;;;;;;;8.10;99.36;100291.41;106946;1267;22648;-58
2023/03/21 04:51:52;;;;;;;57.20;25.30;;;;;;;8.10;99.36;100290.11;106903;1274;22540;-59
2023/03/21 04:54:23;;;;;;;55.70;24.10;;;;;;;8.11;99.33;100294.63;106890;1260;22535;-60
2023/03/21 04:56:54;;;;;;;60.50;26.00;;;;;;;8.10;99.42;100294.90;106897;1261;24836;-61
2023/03/21 04:59:25;;;;;;;52.40;24.20;;;;;;;8.09;99.42;100296.51;106941;1272;24069;-59
2023/03/21 05:01:57;;;;;;;54.10;24.30;;;;;;;8.09;99.39;100297.61;106961;1270;22608;-59
2023/03/21 05:04:28;;;;;;;53.60;24.80;;;;;;;8.09;99.56;100295.00;106834;1267;25456;-59
2023/03/21 05:07:00;;;;;;;53.20;24.70;;;;;;;8.09;99.55;100295.86;107044;1274;24266;-58
2023/03/21 05:09:31;;;;;;;58.40;26.10;;;;;;;8.09;99.63;100297.23;106948;1275;25294;-59
2023/03/21 05:12:01;;;;;;;57.50;26.20;;;;;;;8.08;99.49;100301.23;106946;1273;24756;-59
2023/03/21 05:14:33;;;;;;;58.20;25.10;;;;;;;8.08;99.65;100304.16;106917;1275;22521;-59
2023/03/21 05:17:04;;;;;;;53.90;23.30;;;;;;;8.08;99.71;100305.69;106955;1275;24267;-60
2023/03/21 05:19:35;;;;;;;58.80;24.60;;;;;;;8.08;99.71;100304.25;106862;1251;22635;-60
2023/03/21 05:22:09;;;;;;;55.50;25.60;;;;;;;8.09;99.73;100304.92;106900;1274;22513;-59
2023/03/21 05:24:40;;;;;;;59.60;25.30;;;;;;;8.09;99.85;100307.00;106910;1267;26240;-58
2023/03/21 05:27:12;;;;;;;60.20;26.80;;;;;;;8.09;99.88;100309.61;106974;1269;25476;-56
2023/03/21 05:29:43;;;;;;;60.50;27.00;;;;;;;8.09;99.92;100311.91;107155;1273;23148;-57
2023/03/21 05:32:14;;;;;;;54.70;24.60;;;;;;;8.09;99.92;100311.52;107054;1260;22692;-57
2023/03/21 05:34:45;;;;;;;54.70;25.70;;;;;;;8.09;100.00;100312.27;107096;1274;26242;-57
2023/03/21 05:37:16;;;;;;;63.50;27.10;;;;;;;8.08;99.94;100312.50;106967;1259;24231;-58
2023/03/21 05:39:47;;;;;;;61.40;27.60;;;;;;;8.08;99.95;100316.90;106866;1274;24267;-60
2023/03/21 05:42:18;;;;;;;59.50;25.40;;;;;;;8.09;100.00;100319.00;106868;1268;24222;-63
2023/03/21 05:44:49;;;;;;;62.10;26.20;;;;;;;8.10;100.00;100319.20;106785;1257;24839;-60
2023/03/21 05:47:20;;;;;;;54.10;24.60;;;;;;;8.12;100.00;100318.58;106691;1269;22525;-61
2023/03/21 05:49:51;;;;;;;59.30;24.40;;;;;;;8.12;100.00;100317.06;106864;1274;24249;-57
2023/03/21 05:52:22;;;;;;;56.80;24.60;;;;;;;8.12;100.00;100321.67;106764;1261;25421;-61
2023/03/21 05:54:53;;;;;;;63.10;26.90;;;;;;;8.12;100.00;100321.05;106608;1259;24245;-61
2023/03/21 05:57:26;;;;;;;58.20;26.40;;;;;;;8.12;100.00;100322.48;106721;1267;22517;-60
2023/03/21 05:59:57;;;;;;;56.90;25.80;;;;;;;8.12;100.00;100328.00;106766;1267;22795;-60
2023/03/21 06:02:28;;;;;;;55.10;25.30;;;;;;;8.13;100.00;100328.54;107001;1268;24273;-61
2023/03/21 06:04:59;;;;;;;61.40;26.50;;;;;;;8.14;100.00;100328.81;106813;1273;25460;-59
2023/03/21 06:07:30;;;;;;;58.80;26.00;;;;;;;8.15;100.00;100327.95;106799;1260;24306;-60
2023/03/21 06:10:01;;;;;;;57.40;26.30;;;;;;;8.18;100.00;100333.54;106722;1274;25424;-59
2023/03/21 06:12:33;;;;;;;58.40;26.50;;;;;;;8.19;100.00;100332.15;107526;1275;24182;-60
2023/03/21 06:15:07;;;;;;;58.10;26.20;;;;;;;8.20;100.00;100332.21;106797;1275;22524;-58
2023/03/21 06:17:38;;;;;;;59.80;26.90;;;;;;;8.21;100.00;100335.53;106979;1274;24449;-59
2023/03/21 06:20:12;;;;;;;64.50;29.00;;;;;;;8.21;100.00;100331.23;106898;1275;24272;-60
2023/03/21 06:22:43;;;;;;;59.30;27.70;;;;;;;8.22;100.00;100334.81;106911;1259;25345;-59
2023/03/21 06:25:14;;;;;;;64.00;29.20;;;;;;;8.23;100.00;100335.75;106919;1274;22513;-59
2023/03/21 06:27:45;;;;;;;54.60;26.90;;;;;;;8.24;100.00;100338.31;106769;1268;24619;-60
2023/03/21 06:30:18;;;;;;;65.00;32.50;;;;;;;8.24;100.00;100340.31;106892;1259;23387;-59
2023/03/21 06:32:49;;;;;;;52.50;25.10;;;;;;;8.25;100.00;100344.34;107967;1274;22630;-59
2023/03/21 06:35:20;;;;;;;57.90;25.90;;;;;;;8.27;100.00;100341.43;106754;1267;22530;-60
2023/03/21 06:37:51;;;;;;;60.80;26.30;;;;;;;8.27;100.00;100342.52;106901;1274;22483;-62
2023/03/21 06:40:23;;;;;;;55.10;27.20;;;;;;;8.29;100.00;100342.37;106885;1272;22577;-59
2023/03/21 06:42:53;;;;;;;58.70;26.40;;;;;;;8.30;100.00;100346.39;107094;1269;22533;-62
2023/03/21 06:45:24;;;;;;;54.00;23.80;;;;;;;8.31;100.00;100352.78;106875;1274;22528;-59
2023/03/21 06:47:55;;;;;;;59.10;26.20;;;;;;;8.32;100.00;100347.65;106911;1275;22535;-60
2023/03/21 06:50:26;;;;;;;58.60;25.90;;;;;;;8.33;100.00;100353.09;106819;1267;22494;-59
2023/03/21 06:52:58;;;;;;;58.30;25.30;;;;;;;8.33;100.00;100353.63;106920;1275;23080;-59
2023/03/21 06:55:29;;;;;;;53.90;24.60;;;;;;;8.34;100.00;100353.02;107172;1267;24213;-59
2023/03/21 06:58:01;;;;;;;57.60;25.30;;;;;;;8.34;100.00;100356.27;106851;1272;22570;-60
2023/03/21 07:00:33;;;;;;;48.60;22.70;;;;;;;8.33;100.00;100362.22;106781;1267;22566;-60
2023/03/21 07:03:04;;;;;;;57.90;28.00;;;;;;;8.33;100.00;100367.29;107087;1273;24215;-59
2023/03/21 07:05:36;;;;;;;55.60;23.20;;;;;;;8.35;100.00;100368.02;106960;1267;23155;-61
2023/03/21 07:08:11;;;;;;;53.50;22.80;;;;;;;8.34;100.00;100372.97;106883;1274;24216;-59
2023/03/21 07:10:42;;;;;;;51.20;23.50;;;;;;;8.33;100.00;100370.16;106975;1275;23890;-61
2023/03/21 07:13:14;;;;;;;45.20;20.50;;;;;;;8.33;100.00;100370.66;106924;1274;22528;-59
2023/03/21 07:15:45;;;;;;;43.90;20.20;;;;;;;8.33;100.00;100374.14;106861;1275;24691;-59
2023/03/21 07:18:16;;;;;;;47.70;21.20;;;;;;;8.33;99.99;100376.16;106856;1274;22517;-60
2023/03/21 07:20:50;;;;;;;48.30;22.00;;;;;;;8.33;99.98;100373.28;106851;1264;22645;-60
2023/03/21 07:23:24;;;;;;;48.60;21.00;;;;;;;8.34;99.92;100370.34;107019;1272;24193;-59
2023/03/21 07:25:55;;;;;;;40.60;18.50;;;;;;;8.37;99.93;100373.00;107100;1274;25420;-59
2023/03/21 07:28:27;;;;;;;45.40;19.80;;;;;;;8.40;99.65;100372.83;106903;1274;22533;-60
2023/03/21 07:31:01;;;;;;;40.20;17.50;;;;;;;8.43;99.52;100375.33;106908;1274;24274;-60
2023/03/21 07:33:33;;;;;;;40.60;19.50;;;;;;;8.46;99.45;100375.95;106930;1274;25495;-60
2023/03/21 07:36:09;;;;;;;40.90;17.50;;;;;;;8.49;99.31;100376.80;106942;1267;24299;-59
2023/03/21 07:38:41;;;;;;;39.00;16.30;;;;;;;8.51;99.01;100378.53;107143;1261;24246;-59
2023/03/21 07:41:25;;;;;;;41.40;18.00;;;;;;;8.54;98.87;100381.91;107279;1275;22629;-60
2023/03/21 07:43:58;;;;;;;33.70;14.80;;;;;;;8.57;98.61;100382.98;107443;1274;22571;-60
2023/03/21 07:46:29;;;;;;;40.70;15.70;;;;;;;8.58;98.16;100380.77;106864;1260;22711;-61
2023/03/21 07:49:00;;;;;;;36.40;16.20;;;;;;;8.60;98.15;100381.27;106999;1259;23140;-60
2023/03/21 07:51:31;;;;;;;29.90;12.80;;;;;;;8.61;98.02;100384.70;106904;1274;25867;-60
2023/03/21 07:54:02;;;;;;;31.20;13.50;;;;;;;8.63;97.36;100382.39;106975;1271;22528;-60
2023/03/21 07:56:33;;;;;;;33.00;13.00;;;;;;;8.65;96.89;100388.14;106868;1259;26660;-61
2023/03/21 07:59:04;;;;;;;30.60;12.60;;;;;;;8.66;96.45;100385.70;106895;1275;22575;-61
2023/03/21 08:01:35;;;;;;;29.60;13.40;;;;;;;8.66;96.35;100392.45;106959;1274;22527;-58
2023/03/21 08:04:07;;;;;;;25.30;11.00;;;;;;;8.68;96.15;100390.55;106950;1269;22614;-61
2023/03/21 08:06:38;;;;;;;34.60;13.80;;;;;;;8.69;96.35;100389.45;106937;1274;23038;-59
2023/03/21 08:09:09;;;;;;;37.60;11.80;;;;;;;8.74;96.39;100389.02;106933;1273;24045;-61
2023/03/21 08:12:01;;;;;;;23.30;9.20;;;;;;;8.79;95.61;100388.23;106892;1275;24415;-60
2023/03/21 08:14:32;;;;;;;29.60;12.30;;;;;;;8.83;94.77;100391.30;106911;1259;25414;-59
2023/03/21 08:17:04;;;;;;;28.10;11.50;;;;;;;8.86;94.59;100390.54;106764;1267;25466;-61
2023/03/21 08:19:36;;;;;;;25.80;11.70;;;;;;;8.90;94.85;100389.91;106960;1267;22841;-60
2023/03/21 08:22:07;;;;;;;31.80;13.20;;;;;;;8.92;94.46;100392.75;107744;1267;22523;-60
2023/03/21 08:24:37;;;;;;;32.00;13.30;;;;;;;8.93;94.96;100394.13;106975;1272;22521;-61
2023/03/21 08:27:09;;;;;;;28.10;12.00;;;;;;;8.97;95.11;100396.14;106950;1262;22754;-61
2023/03/21 08:29:41;;;;;;;30.40;13.00;;;;;;;8.98;94.82;100400.98;107065;1269;22558;-61
2023/03/21 08:32:12;;;;;;;35.60;14.80;;;;;;;9.00;95.12;100399.05;107097;1274;22596;-62
2023/03/21 08:34:43;;;;;;;31.10;13.70;;;;;;;9.02;95.45;100402.45;106949;1274;25632;-61
2023/03/21 08:37:14;;;;;;;32.40;13.00;;;;;;;9.03;94.92;100404.45;107070;1264;22521;-63
2023/03/21 08:39:45;;;;;;;32.50;12.40;;;;;;;9.02;94.28;100409.98;106983;1267;22517;-58
2023/03/21 08:42:16;;;;;;;37.90;15.40;;;;;;;8.99;93.94;100406.23;107066;1272;22728;-58
2023/03/21 08:44:47;;;;;;;33.30;14.40;;;;;;;8.97;94.47;100408.70;106952;1256;22538;-59
2023/03/21 08:47:18;;;;;;;28.60;12.40;;;;;;;8.95;94.10;100410.61;106881;1274;22666;-60
2023/03/21 08:49:50;;;;;;;30.50;14.10;;;;;;;8.90;93.52;100414.88;106931;1275;22667;-60
2023/03/21 08:52:21;;;;;;;34.70;14.10;;;;;;;8.84;93.92;100415.21;106972;1269;22564;-59
2023/03/21 08:54:51;;;;;;;24.90;11.80;;;;;;;8.80;94.01;100421.92;106910;1275;22533;-60
2023/03/21 08:57:22;;;;;;;32.10;14.20;;;;;;;8.76;94.28;100425.42;106889;1272;24241;-59
2023/03/21 08:59:53;;;;;;;33.30;14.00;;;;;;;8.75;94.41;100424.98;106920;1272;24305;-61
2023/03/21 09:02:24;;;;;;;31.00;13.00;;;;;;;8.73;94.72;100427.54;106938;1274;22543;-60
2023/03/21 09:04:57;;;;;;;31.30;14.40;;;;;;;8.72;94.67;100426.61;107004;1259;24844;-60
2023/03/21 09:07:32;;;;;;;34.60;15.40;;;;;;;8.74;95.15;100430.05;107420;1267;22563;-59
2023/03/21 09:10:04;;;;;;;37.80;15.80;;;;;;;8.74;95.48;100433.39;107018;1275;22517;-60
2023/03/21 09:12:36;;;;;;;36.20;16.00;;;;;;;8.74;95.75;100438.56;107365;1271;22575;-62
2023/03/21 09:15:10;;;;;;;36.00;14.80;;;;;;;8.74;95.61;100437.51;106950;1267;22570;-62
2023/03/21 09:17:43;;;;;;;33.50;15.50;;;;;;;8.77;95.96;100433.67;107014;1269;22566;-60
2023/03/21 09:20:17;;;;;;;34.60;15.90;;;;;;;8.79;95.98;100435.63;107078;1267;24233;-60
2023/03/21 09:22:50;;;;;;;33.30;15.00;;;;;;;8.84;96.00;100434.52;107271;1270;22483;-60
2023/03/21 09:25:22;;;;;;;34.60;14.30;;;;;;;8.91;96.40;100434.25;107079;1272;24177;-60
2023/03/21 09:27:54;;;;;;;34.90;14.40;;;;;;;8.97;96.27;100434.41;108169;1267;22461;-60
2023/03/21 09:30:25;;;;;;;31.30;13.60;;;;;;;9.03;96.09;100429.37;106974;1266;24209;-61
2023/03/21 09:32:56;;;;;;;29.10;13.00;;;;;;;9.11;95.67;100432.21;108133;1269;22532;-60
2023/03/21 09:35:28;;;;;;;26.90;10.90;;;;;;;9.13;94.76;100430.96;107052;1260;22518;-61
2023/03/21 09:37:59;;;;;;;27.20;12.50;;;;;;;9.18;94.41;100429.27;107866;1263;22514;-59
2023/03/21 09:40:52;;;;;;;34.00;12.50;;;;;;;9.22;94.63;100432.23;106874;1275;25104;-61
2023/03/21 09:43:37;;;;;;;27.00;11.10;;;;;;;9.32;94.37;100431.94;107425;1267;22513;-61
2023/03/21 09:46:16;;;;;;;28.10;13.30;;;;;;;9.40;93.77;100429.69;107404;1259;24199;-60
2023/03/21 09:48:57;;;;;;;31.60;13.20;;;;;;;9.48;93.24;100428.83;106934;1269;22531;-61
2023/03/21 09:51:32;;;;;;;32.90;14.00;;;;;;;9.55;92.82;100427.96;106993;1274;22949;-60
2023/03/21 09:54:09;;;;;;;40.10;16.50;;;;;;;9.64;93.11;100419.70;106971;1271;22626;-60
2023/03/21 09:56:43;;;;;;;31.90;13.00;;;;;;;9.75;93.11;100421.05;106932;1274;22535;-59
2023/03/21 09:59:22;;;;;;;28.90;13.10;;;;;;;9.82;92.35;100423.46;107010;1262;22598;-60
2023/03/21 10:01:54;;;;;;;28.40;13.40;;;;;;;9.89;92.07;100421.55;106875;1274;22520;-60
2023/03/21 10:04:26;;;;;;;31.70;13.90;;;;;;;9.97;92.19;100419.79;106932;1274;26132;-59
2023/03/21 10:07:01;;;;;;;31.60;14.20;;;;;;;10.07;91.85;100415.56;106951;1257;22741;-61
2023/03/21 10:09:33;;;;;;;31.10;14.80;;;;;;;10.16;91.46;100415.48;106820;1272;22516;-59
2023/03/21 10:12:08;;;;;;;30.70;14.50;;;;;;;10.20;91.12;100416.49;106771;1269;22526;-61
2023/03/21 10:14:50;;;;;;;33.20;14.70;;;;;;;10.21;91.19;100415.86;106903;1271;22516;-59
2023/03/21 10:17:32;;;;;;;31.60;14.40;;;;;;;10.22;90.00;100418.21;107018;1259;22573;-60
2023/03/21 10:20:15;;;;;;;33.10;16.50;;;;;;;10.22;90.70;100417.11;106938;1272;24206;-59
2023/03/21 10:22:48;;;;;;;37.70;16.80;;;;;;;10.26;90.38;100415.16;106903;1262;25300;-61
2023/03/21 10:25:22;;;;;;;44.50;18.40;;;;;;;10.31;90.58;100417.62;106937;1268;24212;-60
2023/03/21 10:27:54;;;;;;;34.30;14.80;;;;;;;10.36;89.83;100421.67;102837;1272;5471622;-59
2023/03/21 10:30:35;;;;;;;37.70;14.60;;;;;;;10.35;88.84;100420.39;106903;1272;22587;-60
2023/03/21 10:33:09;;;;;;;35.40;16.50;;;;;;;10.33;89.14;100415.52;107630;1251;23165;-61
2023/03/21 10:35:41;;;;;;;34.40;16.60;;;;;;;10.39;89.19;100415.87;107330;1272;26525;-60
2023/03/21 10:38:18;;;;;;;30.70;14.30;;;;;;;10.48;89.61;100422.11;107210;1274;22609;-61
2023/03/21 10:40:49;;;;;;;31.70;14.20;;;;;;;10.55;88.75;100422.58;106994;1274;22602;-60
2023/03/21 10:43:36;;;;;;;32.10;13.80;;;;;;;10.58;87.96;100421.67;106938;1274;22529;-60
2023/03/21 10:46:16;;;;;;;32.20;14.70;;;;;;;10.63;87.51;100421.06;107002;1262;22504;-61
2023/03/21 10:48:53;;;;;;;31.00;13.40;;;;;;;10.65;86.63;100419.98;106943;1274;22534;-60
2023/03/21 10:51:28;;;;;;;28.50;13.40;;;;;;;10.61;86.83;100415.64;106955;1275;22599;-61
2023/03/21 10:54:03;;;;;;;35.70;15.10;;;;;;;10.61;86.95;100416.52;106922;1268;22454;-61
2023/03/21 10:56:39;;;;;;;31.80;14.80;;;;;;;10.63;86.79;100413.48;107025;1274;23933;-60
2023/03/21 10:59:17;;;;;;;33.80;16.60;;;;;;;10.64;86.27;100415.10;106968;1269;23641;-61
2023/03/21 11:01:54;;;;;;;38.00;19.40;;;;;;;10.64;86.21;100412.89;106923;1259;22507;-61
2023/03/21 11:04:29;;;;;;;43.10;21.00;;;;;;;10.63;86.70;100414.27;107965;1262;22513;-59
2023/03/21 11:07:05;;;;;;;47.50;23.30;;;;;;;10.64;86.67;100412.08;107965;1268;25342;-60
2023/03/21 11:09:48;;;;;;;48.70;24.00;;;;;;;10.63;86.42;100414.04;107392;1259;25454;-61
2023/03/21 11:12:29;;;;;;;46.20;23.60;;;;;;;10.63;86.24;100409.84;107043;1270;25384;-59
2023/03/21 11:15:25;;;;;;;42.60;21.20;;;;;;;10.59;85.57;100409.04;106793;1268;22561;-61
2023/03/21 11:17:56;;;;;;;34.70;15.80;;;;;;;10.57;86.11;100407.85;106835;1267;23925;-61
2023/03/21 11:20:30;;;;;;;37.80;16.10;;;;;;;10.60;86.38;100402.92;106728;1274;22547;-61
2023/03/21 11:23:06;;;;;;;38.30;16.90;;;;;;;10.66;86.43;100402.55;106921;1262;25499;-61
2023/03/21 11:25:41;;;;;;;37.10;18.10;;;;;;;10.71;86.27;100399.66;106865;1267;25373;-61
2023/03/21 11:28:17;;;;;;;41.20;18.40;;;;;;;10.73;86.16;100401.63;107083;1267;22525;-60
2023/03/21 11:30:57;;;;;;;38.00;18.30;;;;;;;10.78;86.11;100397.41;106922;1259;22516;-61
2023/03/21 11:33:32;;;;;;;34.30;17.20;;;;;;;10.77;85.36;100399.98;106999;1268;22611;-59
2023/03/21 11:36:07;;;;;;;50.20;22.10;;;;;;;10.77;85.84;100398.86;107072;1262;26390;-61
2023/03/21 11:38:40;;;;;;;35.10;18.00;;;;;;;10.81;86.02;100392.55;107148;1269;22516;-59